.
WxDataArchive / Data Records for 2007-07-15
2007-07-14 July 2007 2007-07-16

Data Records for Sunday, 15 July 2007

Time	Temp	Chill	HIndex	Humid	Dewpt	 Wind 	HiWind	WindDir	Rain 	Barom 
-----	----	-----	------	-----	-----	------	------	-------	-----	----- 
00:00	66.1	66.1	66.1	96	64.9	0	0	---	0.00	29.734 
00:05	66.0	66.0	66.0	96	64.8	0	0	---	0.00	29.734 
00:10	66.0	66.0	66.0	96	64.8	0	0	---	0.00	29.734 
00:15	65.8	65.8	65.8	96	64.6	0	0	---	0.00	29.735 
00:20	65.6	65.6	65.6	96	64.4	0	0	---	0.00	29.736 
00:25	65.5	65.5	65.5	96	64.3	0	0	---	0.00	29.739 
00:30	65.5	65.5	65.5	96	64.3	0	0	---	0.00	29.741 
00:35	65.3	65.3	65.3	96	64.1	0	0	---	0.00	29.738 
00:40	65.2	65.2	65.2	96	64.0	0	0	---	0.00	29.739 
00:45	65.3	65.3	65.3	96	64.1	0	0	---	0.00	29.739 
00:50	65.3	65.3	65.3	97	64.4	0	0	---	0.00	29.744 
00:55	65.3	65.3	65.3	97	64.4	0	0	---	0.00	29.747 
01:00	65.5	65.5	65.5	97	64.6	0	0	---	0.00	29.743 
01:05	65.5	65.5	65.5	97	64.6	0	0	---	0.00	29.741 
01:10	65.5	65.5	65.5	97	64.6	0	0	---	0.00	29.746 
01:15	65.5	65.5	65.5	97	64.6	0	0	---	0.00	29.743 
01:20	65.3	65.3	65.3	97	64.4	0	0	---	0.00	29.742 
01:25	65.2	65.2	65.2	97	64.3	0	0	---	0.00	29.744 
01:30	64.8	64.8	64.8	97	63.9	0	0	---	0.00	29.749 
01:35	64.5	64.5	64.5	97	63.6	0	0	---	0.00	29.747 
01:40	64.2	64.2	64.2	97	63.3	0	0	---	0.00	29.747 
01:45	63.9	63.9	63.9	97	63.0	0	0	---	0.00	29.748 
01:50	63.7	63.7	63.7	97	62.8	0	0	---	0.00	29.748 
01:55	63.5	63.5	63.5	97	62.6	0	0	---	0.00	29.745 
02:00	63.4	63.4	63.4	97	62.5	0	0	---	0.00	29.744 
02:05	63.2	63.2	63.2	97	62.3	0	0	---	0.00	29.745 
02:10	63.1	63.1	63.1	97	62.2	0	0	---	0.00	29.748 
02:15	62.9	62.9	62.9	97	62.0	0	0	---	0.00	29.750 
02:20	62.7	62.7	62.7	97	61.8	0	0	---	0.00	29.750 
02:25	62.6	62.6	62.6	97	61.7	0	0	---	0.00	29.751 
02:30	62.4	62.4	62.4	97	61.5	0	0	---	0.00	29.749 
02:35	62.3	62.3	62.3	96	61.1	0	0	---	0.00	29.749 
02:40	62.1	62.1	62.1	96	60.9	0	0	---	0.00	29.749 
02:45	62.0	62.0	62.0	96	60.8	0	0	---	0.00	29.749 
02:50	61.8	61.8	61.8	96	60.6	0	0	---	0.00	29.750 
02:55	61.6	61.6	61.6	96	60.4	0	0	---	0.00	29.750 
03:00	61.5	61.5	61.5	96	60.3	0	0	---	0.00	29.751 
03:05	61.5	61.5	61.5	96	60.3	0	0	---	0.00	29.752 
03:10	61.3	61.3	61.3	96	60.1	0	0	---	0.00	29.753 
03:15	61.3	61.3	61.3	96	60.1	0	0	---	0.00	29.752 
03:20	61.0	61.0	61.0	96	59.8	0	0	---	0.00	29.752 
03:25	60.9	60.9	60.9	96	59.7	0	0	---	0.00	29.751 
03:30	60.7	60.7	60.7	96	59.6	0	0	---	0.00	29.752 
03:35	60.5	60.5	60.5	96	59.4	0	0	---	0.00	29.753 
03:40	60.5	60.5	60.5	96	59.4	0	0	---	0.00	29.754 
03:45	60.4	60.4	60.4	96	59.3	0	0	---	0.00	29.755 
03:50	60.2	60.2	60.2	96	59.1	0	0	---	0.00	29.755 
03:55	60.1	60.1	60.1	96	59.0	0	0	---	0.00	29.755 
04:00	59.9	59.9	59.9	96	58.8	0	0	---	0.00	29.755 
04:05	59.8	59.8	59.8	96	58.7	0	0	---	0.00	29.755 
04:10	59.8	59.8	59.8	96	58.7	0	0	---	0.00	29.754 
04:15	59.8	59.8	59.8	96	58.7	0	0	---	0.00	29.754 
04:20	59.8	59.8	59.8	96	58.7	0	0	---	0.00	29.756 
04:25	59.8	59.8	59.8	96	58.7	0	0	---	0.00	29.759 
04:30	59.9	59.9	59.9	96	58.8	0	0	---	0.00	29.758 
04:35	59.9	59.9	59.9	96	58.8	0	0	---	0.00	29.761 
04:40	60.1	60.1	60.1	96	59.0	0	0	---	0.00	29.761 
04:45	60.1	60.1	60.1	96	59.0	0	0	---	0.00	29.766 
04:50	60.1	60.1	60.1	96	59.0	0	0	---	0.00	29.770 
04:55	60.1	60.1	60.1	97	59.2	0	0	---	0.00	29.770 
05:00	60.1	60.1	60.1	97	59.2	0	0	---	0.00	29.771 
05:05	60.2	60.2	60.2	97	59.3	0	0	---	0.00	29.773 
05:10	60.2	60.2	60.2	97	59.3	0	0	---	0.00	29.776 
05:15	60.2	60.2	60.2	97	59.3	0	0	---	0.00	29.772 
05:20	60.1	60.1	60.1	97	59.2	0	0	---	0.00	29.775 
05:25	60.1	60.1	60.1	97	59.2	0	0	---	0.00	29.778 
05:30	60.1	60.1	60.1	97	59.2	0	0	---	0.00	29.780 
05:35	59.9	59.9	59.9	97	59.0	0	0	---	0.00	29.781 
05:40	59.9	59.9	59.9	97	59.0	0	0	---	0.00	29.782 
05:45	59.9	59.9	59.9	97	59.0	0	0	---	0.00	29.785 
05:50	59.9	59.9	59.9	96	58.8	0	0	---	0.00	29.786 
05:55	59.9	59.9	59.9	96	58.8	0	0	---	0.00	29.786 
06:00	59.9	59.9	59.9	96	58.8	0	0	---	0.00	29.786 
06:05	59.9	59.9	59.9	96	58.8	0	1	292	0.00	29.786 
06:10	60.1	60.1	60.1	96	59.0	0	1	292	0.00	29.786 
06:15	60.1	60.1	60.1	96	59.0	0	1	292	0.00	29.787 
06:20	60.1	60.1	60.1	96	59.0	0	1	292	0.00	29.787 
06:25	60.2	60.2	60.2	95	58.8	0	1	292	0.00	29.787 
06:30	60.4	60.4	60.4	95	59.0	0	0	---	0.00	29.789 
06:35	60.5	60.5	60.5	95	59.1	0	0	---	0.00	29.791 
06:40	60.9	60.9	60.9	94	59.2	0	1	292	0.00	29.795 
06:45	61.0	61.0	61.0	94	59.3	0	1	292	0.00	29.798 
06:50	61.2	61.2	61.2	92	58.9	0	1	292	0.00	29.799 
06:55	61.0	61.0	61.0	91	58.4	0	2	292	0.00	29.801 
07:00	61.2	61.2	61.2	90	58.2	0	2	292	0.00	29.801 
07:05	61.3	61.3	61.3	88	57.7	0	1	292	0.00	29.804 
07:10	61.8	61.8	61.8	88	58.2	0	1	292	0.00	29.805 
07:15	62.0	62.0	62.0	85	57.4	0	2	292	0.00	29.808 
07:20	62.3	62.3	62.3	84	57.4	0	2	292	0.00	29.807 
07:25	62.9	62.9	62.9	82	57.3	1	4	90	0.00	29.808 
07:30	63.5	63.5	63.5	79	56.9	0	3	112	0.00	29.812 
07:35	64.0	64.0	64.0	76	56.3	1	3	90	0.00	29.813 
07:40	64.5	64.5	64.5	77	57.1	1	3	90	0.00	29.815 
07:45	64.2	64.2	64.2	75	56.1	0	2	90	0.00	29.816 
07:50	63.9	63.9	63.9	75	55.8	0	1	90	0.00	29.817 
07:55	63.5	63.5	63.5	77	56.2	0	1	90	0.00	29.818 
08:00	63.9	63.9	63.9	76	56.2	0	1	112	0.00	29.818 
08:05	64.2	64.2	64.2	76	56.5	0	2	158	0.00	29.832 
08:10	64.5	64.5	64.5	75	56.4	0	3	112	0.00	29.837 
08:15	64.7	64.7	64.7	72	55.5	1	3	112	0.00	29.838 
08:20	64.8	64.8	64.8	73	55.9	1	4	90	0.00	29.840 
08:25	64.7	64.7	64.7	72	55.5	1	5	135	0.00	29.842 
08:30	64.5	64.5	64.5	73	55.6	0	2	135	0.00	29.843 
08:35	64.7	64.7	64.7	72	55.5	1	3	135	0.00	29.844 
08:40	65.0	65.0	65.0	73	56.1	0	5	135	0.00	29.847 
08:45	65.5	65.5	65.5	73	56.6	1	3	90	0.00	29.847 
08:50	65.8	65.8	65.8	71	56.1	0	2	90	0.00	29.846 
08:55	66.1	66.1	66.1	69	55.6	1	3	270	0.00	29.847 
09:00	66.3	66.3	66.3	69	55.8	0	3	270	0.00	29.848 
09:05	66.9	66.9	66.9	70	56.8	0	3	315	0.00	29.845 
09:10	67.4	67.4	67.4	66	55.6	0	2	45	0.00	29.846 
09:15	67.6	67.6	67.6	65	55.4	0	2	0	0.00	29.844 
09:20	68.1	68.1	68.1	67	56.7	1	4	68	0.00	29.842 
09:25	68.4	68.4	68.4	63	55.3	2	5	112	0.00	29.844 
09:30	68.3	68.3	68.3	66	56.5	1	3	112	0.00	29.844 
09:35	68.3	68.3	68.3	67	56.9	1	3	112	0.00	29.845 
09:40	68.4	68.4	68.4	65	56.2	0	1	112	0.00	29.845 
09:45	68.6	68.6	68.6	64	55.9	0	3	112	0.00	29.845 
09:50	68.6	68.6	68.6	64	55.9	1	3	112	0.00	29.844 
09:55	68.8	68.8	68.8	67	57.4	0	2	112	0.00	29.847 
10:00	69.1	69.1	69.1	62	55.5	1	5	90	0.00	29.849 
10:05	69.6	69.6	69.6	57	53.7	1	5	112	0.00	29.846 
10:10	69.8	69.8	69.8	58	54.3	1	6	112	0.00	29.852 
10:15	70.3	70.3	70.3	58	54.8	2	5	112	0.00	29.849 
10:20	70.6	70.6	70.6	57	54.6	0	2	135	0.00	29.847 
10:25	71.1	71.1	71.1	56	54.6	1	4	90	0.00	29.849 
10:30	71.3	71.3	71.3	58	55.7	1	4	90	0.00	29.849 
10:35	71.6	71.6	71.6	51	52.5	2	4	112	0.00	29.851 
10:40	71.5	71.5	71.5	53	53.5	1	2	0	0.00	29.852 
10:45	71.6	71.6	71.6	59	56.5	0	4	270	0.00	29.853 
10:50	72.0	72.0	72.0	52	53.4	1	5	90	0.00	29.854 
10:55	71.6	71.6	71.6	55	54.6	1	4	90	0.00	29.854 
11:00	72.0	72.0	72.0	54	54.4	1	4	112	0.00	29.854 
11:05	72.0	72.0	72.0	53	53.9	1	3	90	0.00	29.856 
11:10	72.3	72.3	72.3	51	53.1	2	5	112	0.00	29.857 
11:15	72.8	72.8	72.8	52	54.1	2	6	90	0.00	29.859 
11:20	73.2	73.2	73.2	50	53.4	2	6	112	0.00	29.862 
11:25	73.2	73.2	73.2	50	53.4	1	5	90	0.00	29.861 
11:30	74.0	74.0	74.0	54	56.3	1	3	90	0.00	29.861 
11:35	73.9	73.9	73.9	52	55.1	0	1	22	0.00	29.861 
11:40	74.7	74.7	74.7	51	55.4	0	1	22	0.00	29.862 
11:45	75.3	75.3	77.7	48	54.2	2	6	90	0.00	29.863 
11:50	75.8	75.8	77.9	46	53.5	1	3	112	0.00	29.861 
11:55	76.3	76.3	78.0	43	52.1	1	3	112	0.00	29.862 
12:00	76.1	76.1	78.0	45	53.2	1	9	112	0.00	29.862 
12:05	76.1	76.1	78.1	48	55.0	3	6	90	0.00	29.863 
12:10	75.6	75.6	77.9	47	53.9	2	5	90	0.00	29.861 
12:15	75.6	75.6	77.9	48	54.5	1	4	135	0.00	29.855 
12:20	75.6	75.6	77.8	45	52.7	1	3	90	0.00	29.854 
12:25	76.0	76.0	78.0	44	52.5	2	5	90	0.00	29.856 
12:30	76.3	76.3	78.0	42	51.5	1	2	338	0.00	29.856 
12:35	76.3	76.3	78.0	42	51.5	1	3	292	0.00	29.855 
12:40	76.8	76.8	78.2	42	51.9	1	2	22	0.00	29.854 
12:45	77.2	77.2	78.4	41	51.7	1	4	225	0.00	29.856 
12:50	77.6	77.6	78.6	41	52.0	1	5	68	0.00	29.856 
12:55	77.4	77.4	78.3	38	49.8	1	3	292	0.00	29.857 
13:00	77.6	77.6	78.8	45	54.6	0	2	292	0.00	29.856 
13:05	78.3	78.3	78.9	41	52.6	1	3	292	0.00	29.860 
13:10	78.5	78.5	79.1	42	53.5	1	3	112	0.00	29.856 
13:15	78.3	78.3	78.9	41	52.6	1	4	112	0.00	29.858 
13:20	78.3	78.3	78.7	37	49.9	1	3	112	0.00	29.861 
13:25	78.5	78.5	78.7	36	49.3	1	3	315	0.00	29.858 
13:30	78.5	78.5	78.8	37	50.0	1	3	315	0.00	29.853 
13:35	79.4	79.4	79.8	44	55.6	0	3	315	0.00	29.853 
13:40	79.8	79.8	79.3	33	48.1	0	2	0	0.00	29.852 
13:45	79.9	79.9	79.3	32	47.4	2	5	270	0.00	29.852 
13:50	79.6	79.6	79.0	31	46.3	1	3	270	0.00	29.849 
13:55	79.8	79.8	79.4	35	49.7	1	3	292	0.00	29.849 
14:00	79.9	79.9	79.4	34	49.0	2	4	270	0.00	29.845 
14:05	79.9	79.9	79.3	32	47.4	2	5	248	0.00	29.844 
14:10	79.9	79.9	79.3	32	47.4	1	3	292	0.00	29.844 
14:15	80.5	80.5	79.5	30	46.2	2	5	248	0.00	29.845 
14:20	79.8	79.8	78.9	28	43.8	3	6	292	0.00	29.843 
14:25	79.6	79.6	78.8	28	43.6	1	3	292	0.00	29.844 
14:30	79.9	79.9	79.1	30	45.7	1	2	315	0.00	29.840 
14:35	80.5	80.5	79.6	32	47.9	0	2	315	0.00	29.838 
14:40	80.7	80.7	79.5	28	44.5	1	3	315	0.00	29.840 
14:45	80.5	80.5	79.4	28	44.4	1	3	248	0.00	29.839 
14:50	80.9	80.9	79.7	29	45.6	0	1	292	0.00	29.841 
14:55	81.6	81.6	80.2	30	47.1	1	3	338	0.00	29.843 
15:00	81.8	81.8	80.3	30	47.3	1	3	45	0.00	29.842 
15:05	82.0	82.0	80.7	32	49.2	1	3	112	0.00	29.843 
15:10	81.8	81.8	80.2	28	45.5	1	3	112	0.00	29.845 
15:15	81.2	81.2	79.9	29	45.9	1	3	45	0.00	29.841 
15:20	81.2	81.2	79.6	25	42.0	3	7	90	0.00	29.841 
15:25	80.7	80.7	79.4	27	43.6	0	2	45	0.00	29.840 
15:30	80.7	80.7	79.4	27	43.6	1	3	45	0.00	29.837 
15:35	80.7	80.7	79.5	29	45.5	0	2	248	0.00	29.837 
15:40	81.1	81.1	79.8	29	45.8	0	2	315	0.00	29.838 
15:45	81.4	81.4	79.9	27	44.2	1	4	90	0.00	29.837 
15:50	81.4	81.4	79.9	28	45.1	1	3	315	0.00	29.837 
15:55	81.8	81.8	80.3	29	46.4	1	4	90	0.00	29.835 
16:00	81.8	81.8	80.1	26	43.5	1	4	90	0.00	29.832 
16:05	81.8	81.8	80.2	28	45.5	0	3	90	0.00	29.833 
16:10	81.4	81.4	80.0	29	46.1	1	2	90	0.00	29.833 
16:15	81.2	81.2	79.7	27	44.0	1	3	338	0.00	29.833 
16:20	81.4	81.4	79.9	27	44.2	1	3	292	0.00	29.830 
16:25	81.6	81.6	80.1	28	45.3	1	4	270	0.00	29.831 
16:30	81.6	81.6	80.0	27	44.4	1	2	270	0.00	29.830 
16:35	81.8	81.8	80.3	29	46.4	0	3	248	0.00	29.826 
16:40	81.6	81.6	80.1	28	45.3	1	3	248	0.00	29.829 
16:45	81.2	81.2	79.8	28	45.0	1	2	68	0.00	29.833 
16:50	80.9	80.9	79.6	28	44.7	0	1	338	0.00	29.835 
16:55	80.7	80.7	79.4	27	43.6	0	3	338	0.00	29.836 
17:00	80.7	80.7	79.4	27	43.6	1	3	248	0.00	29.836 
17:05	80.5	80.5	79.4	29	45.3	0	3	202	0.00	29.838 
17:10	80.5	80.5	79.4	29	45.3	0	2	202	0.00	29.838 
17:15	80.3	80.3	79.2	28	44.2	0	2	135	0.00	29.838 
17:20	80.1	80.1	79.2	29	44.9	0	2	112	0.00	29.838 
17:25	79.9	79.9	79.1	29	44.8	1	4	112	0.00	29.840 
17:30	79.6	79.6	78.8	28	43.6	0	2	112	0.00	29.840 
17:35	79.4	79.4	78.9	31	46.1	0	3	112	0.00	29.844 
17:40	79.4	79.4	79.0	32	46.9	1	3	22	0.00	29.841 
17:45	79.6	79.6	79.0	30	45.4	0	1	270	0.00	29.841 
17:50	79.6	79.6	79.0	30	45.4	0	1	270	0.00	29.839 
17:55	79.4	79.4	78.8	29	44.3	0	2	315	0.00	29.841 
18:00	79.4	79.4	78.9	31	46.1	0	2	45	0.00	29.840 
18:05	79.2	79.2	78.7	29	44.2	0	2	90	0.00	29.839 
18:10	79.0	79.0	78.8	32	46.6	0	1	90	0.00	29.840 
18:15	79.2	79.2	78.7	30	45.1	0	2	90	0.00	29.844 
18:20	79.6	79.6	79.0	30	45.4	0	1	22	0.00	29.846 
18:25	79.6	79.6	79.0	31	46.3	0	2	22	0.00	29.844 
18:30	79.4	79.4	78.9	31	46.1	0	1	0	0.00	29.843 
18:35	79.2	79.2	78.8	31	45.9	0	2	0	0.00	29.846 
18:40	79.0	79.0	78.6	30	44.9	0	2	0	0.00	29.848 
18:45	79.0	79.0	78.8	32	46.6	0	1	0	0.00	29.849 
18:50	78.8	78.8	78.8	34	48.0	0	0	---	0.00	29.850 
18:55	78.6	78.6	78.7	35	48.6	0	1	0	0.00	29.851 
19:00	78.3	78.3	78.5	34	47.6	0	1	0	0.00	29.854 
19:05	77.9	77.9	78.4	35	48.0	0	1	0	0.00	29.852 
19:10	77.7	77.7	78.2	33	46.3	0	0	---	0.00	29.854 
19:15	77.4	77.4	78.1	34	46.8	0	1	0	0.00	29.854 
19:20	77.2	77.2	78.1	35	47.4	0	1	0	0.00	29.857 
19:25	77.0	77.0	78.0	35	47.2	0	1	338	0.00	29.859 
19:30	76.7	76.7	77.9	36	47.7	0	0	---	0.00	29.863 
19:35	76.3	76.3	77.8	37	48.1	0	0	---	0.00	29.864 
19:40	76.0	76.0	77.7	38	48.5	0	1	338	0.00	29.867 
19:45	75.6	75.6	77.6	37	47.5	0	0	---	0.00	29.867 
19:50	75.3	75.3	77.5	38	47.9	0	0	---	0.00	29.869 
19:55	74.9	74.9	74.9	38	47.6	0	0	---	0.00	29.870 
20:00	74.6	74.6	74.6	38	47.3	0	0	---	0.00	29.871 
20:05	74.0	74.0	74.0	38	46.8	0	0	---	0.00	29.869 
20:10	73.7	73.7	73.7	39	47.2	0	0	---	0.00	29.869 
20:15	73.0	73.0	73.0	40	47.2	0	0	---	0.00	29.871 
20:20	72.7	72.7	72.7	42	48.3	0	0	---	0.00	29.871 
20:25	72.1	72.1	72.1	44	49.0	0	0	---	0.00	29.871 
20:30	71.6	71.6	71.6	45	49.1	0	0	---	0.00	29.874 
20:35	71.1	71.1	71.1	46	49.3	0	0	---	0.00	29.876 
20:40	70.6	70.6	70.6	46	48.8	0	0	---	0.00	29.877 
20:45	70.3	70.3	70.3	47	49.1	0	0	---	0.00	29.882 
20:50	70.1	70.1	70.1	48	49.5	0	0	---	0.00	29.881 
20:55	69.9	69.9	69.9	49	49.9	0	0	---	0.00	29.884 
21:00	69.8	69.8	69.8	49	49.8	0	0	---	0.00	29.883 
21:05	69.4	69.4	69.4	49	49.4	0	0	---	0.00	29.884 
21:10	69.3	69.3	69.3	50	49.8	0	0	---	0.00	29.885 
21:15	68.9	68.9	68.9	50	49.5	0	0	---	0.00	29.885 
21:20	68.6	68.6	68.6	52	50.3	0	0	---	0.00	29.886 
21:25	68.3	68.3	68.3	52	50.0	0	0	---	0.00	29.887 
21:30	67.8	67.8	67.8	53	50.0	0	0	---	0.00	29.887 
21:35	67.4	67.4	67.4	54	50.2	0	0	---	0.00	29.887 
21:40	67.1	67.1	67.1	55	50.4	0	0	---	0.00	29.887 
21:45	66.8	66.8	66.8	57	51.1	0	0	---	0.00	29.888 
21:50	66.4	66.4	66.4	58	51.2	0	0	---	0.00	29.890 
21:55	66.1	66.1	66.1	58	50.9	0	0	---	0.00	29.889 
22:00	65.8	65.8	65.8	58	50.6	0	0	---	0.00	29.888 
22:05	65.6	65.6	65.6	59	50.9	0	0	---	0.00	29.885 
22:10	65.5	65.5	65.5	61	51.7	0	0	---	0.00	29.883 
22:15	65.3	65.3	65.3	61	51.5	0	0	---	0.00	29.880 
22:20	65.0	65.0	65.0	62	51.7	0	0	---	0.00	29.879 
22:25	64.8	64.8	64.8	62	51.5	0	0	---	0.00	29.880 
22:30	64.5	64.5	64.5	64	52.0	0	0	---	0.00	29.882 
22:35	64.2	64.2	64.2	65	52.2	0	0	---	0.00	29.883 
22:40	63.9	63.9	63.9	65	51.9	0	0	---	0.00	29.883 
22:45	63.5	63.5	63.5	65	51.5	0	0	---	0.00	29.883 
22:50	63.4	63.4	63.4	66	51.8	0	0	---	0.00	29.884 
22:55	63.2	63.2	63.2	66	51.6	0	0	---	0.00	29.887 
23:00	63.1	63.1	63.1	67	52.0	0	0	---	0.00	29.889 
23:05	62.9	62.9	62.9	68	52.2	0	0	---	0.00	29.887 
23:10	62.7	62.7	62.7	69	52.4	0	0	---	0.00	29.892 
23:15	62.4	62.4	62.4	69	52.1	0	0	---	0.00	29.891 
23:20	62.3	62.3	62.3	69	52.0	0	0	---	0.00	29.893 
23:25	62.1	62.1	62.1	70	52.2	0	0	---	0.00	29.894 
23:30	62.0	62.0	62.0	70	52.1	0	0	---	0.00	29.898 
23:35	61.6	61.6	61.6	70	51.7	0	0	---	0.00	29.898 
23:40	61.5	61.5	61.5	71	52.0	0	0	---	0.00	29.898 
23:45	61.2	61.2	61.2	72	52.1	0	0	---	0.00	29.901 
23:50	61.0	61.0	61.0	73	52.3	0	0	---	0.00	29.901 
23:55	60.7	60.7	60.7	73	52.0	0	0	---	0.00	29.900 

CoCoRaHS
IN-AL-39
A2 Web Hosting
Creative Commons License
GoDaddy
Look for:

loaded 2017-10-17 22:16:43 • last modified 2010-11-18 10:43:29
Privacy PolicyDisclaimer
• wx.awcolley.com is powered by PmWiki v.2002016 •
• all content (unless otherwise noted) © 2017 A W Colley